createdAt,value
2022-08-09T00:00:00.880Z,14.12
2022-08-09T00:02:33.885Z,14.03
2022-08-09T00:06:19.335Z,13.97
2022-08-09T00:07:52.339Z,13.93
2022-08-09T00:10:24.485Z,13.87
2022-08-09T00:12:53.310Z,13.85
2022-08-09T00:15:26.790Z,13.88
2022-08-09T00:18:11.845Z,13.92
2022-08-09T00:20:42.510Z,13.77
2022-08-09T00:23:55.355Z,13.77
2022-08-09T00:26:05.388Z,13.73
2022-08-09T00:28:34.456Z,13.70
2022-08-09T00:31:55.820Z,13.75
2022-08-09T00:33:53.084Z,13.72
2022-08-09T00:36:29.702Z,13.78
2022-08-09T00:38:58.494Z,13.72
2022-08-09T00:44:15.386Z,13.54
2022-08-09T00:44:25.014Z,13.59
2022-08-09T00:46:55.810Z,13.50
2022-08-09T00:49:31.065Z,13.44
2022-08-09T00:52:05.302Z,13.42
2022-08-09T00:54:36.372Z,13.48
2022-08-09T00:57:10.471Z,13.41
2022-08-09T00:59:40.948Z,13.41
2022-08-09T01:02:13.625Z,13.33
2022-08-09T01:04:50.104Z,13.29
2022-08-09T01:07:37.840Z,13.22
2022-08-09T01:10:25.910Z,13.15
2022-08-09T01:13:04.183Z,13.13
2022-08-09T01:15:41.126Z,13.12
2022-08-09T01:18:29.690Z,13.00
2022-08-09T01:21:12.686Z,13.08
2022-08-09T01:24:03.012Z,13.00
2022-08-09T01:26:58.025Z,12.88
2022-08-09T01:29:41.034Z,12.80
2022-08-09T01:32:31.031Z,12.76
2022-08-09T01:35:06.977Z,12.70
2022-08-09T01:38:05.981Z,12.64
2022-08-09T01:40:28.393Z,12.51
2022-08-09T01:42:58.983Z,12.52
2022-08-09T01:45:29.316Z,12.46
2022-08-09T01:47:59.599Z,12.42
2022-08-09T01:50:36.632Z,12.41
2022-08-09T01:53:19.847Z,12.38
2022-08-09T01:55:49.175Z,12.35
2022-08-09T01:58:18.680Z,12.38
2022-08-09T02:00:54.326Z,12.45
2022-08-09T02:03:23.061Z,12.32
2022-08-09T02:06:04.110Z,12.28
2022-08-09T02:08:57.137Z,12.33
2022-08-09T02:11:43.463Z,12.29
2022-08-09T02:14:26.218Z,12.25
2022-08-09T02:16:59.912Z,12.23
2022-08-09T02:19:43.762Z,12.19
2022-08-09T02:22:17.733Z,12.15
2022-08-09T02:24:57.886Z,12.15
2022-08-09T02:27:57.397Z,12.17
2022-08-09T02:30:19.067Z,12.07
2022-08-09T02:32:49.187Z,12.01
2022-08-09T02:35:26.116Z,11.92
2022-08-09T02:38:11.654Z,11.87
2022-08-09T02:40:50.060Z,11.84
2022-08-09T02:43:21.175Z,11.84
2022-08-09T02:45:52.848Z,11.79
2022-08-09T02:48:31.005Z,11.83
2022-08-09T02:51:02.560Z,11.73
2022-08-09T02:53:34.352Z,11.75
2022-08-09T02:56:04.443Z,11.71
2022-08-09T02:58:36.709Z,11.59
2022-08-09T03:01:11.031Z,11.53
2022-08-09T03:04:13.205Z,11.47
2022-08-09T03:06:31.447Z,11.42
2022-08-09T03:09:02.241Z,11.38
2022-08-09T03:12:10.474Z,11.35
2022-08-09T03:14:26.533Z,11.30
2022-08-09T03:16:58.988Z,11.27
2022-08-09T03:19:59.161Z,11.26
2022-08-09T03:22:25.479Z,11.24
2022-08-09T03:25:06.277Z,11.14
2022-08-09T03:27:49.066Z,11.09
2022-08-09T03:30:30.208Z,11.10
2022-08-09T03:33:17.584Z,11.03
2022-08-09T03:36:13.261Z,11.02
2022-08-09T03:38:37.252Z,11.03
2022-08-09T03:41:09.711Z,11.04
2022-08-09T03:44:02.882Z,10.99
2022-08-09T03:46:31.247Z,11.01
2022-08-09T03:49:03.987Z,11.04
2022-08-09T03:51:55.622Z,11.03
2022-08-09T03:54:29.527Z,11.02
2022-08-09T03:57:00.102Z,11.03
2022-08-09T03:59:43.131Z,10.92
2022-08-09T04:02:15.282Z,10.89
2022-08-09T04:04:57.231Z,10.85
2022-08-09T04:07:47.924Z,10.89
2022-08-09T04:10:14.231Z,10.88
2022-08-09T04:12:49.880Z,10.83
2022-08-09T04:15:39.032Z,10.80
2022-08-09T04:18:08.473Z,10.79
2022-08-09T04:20:37.415Z,10.66
2022-08-09T04:23:09.698Z,10.76
2022-08-09T04:25:38.248Z,10.77
2022-08-09T04:28:06.578Z,10.81
2022-08-09T04:30:34.071Z,10.88
2022-08-09T04:33:01.745Z,10.92
2022-08-09T04:35:29.456Z,10.95
2022-08-09T04:38:03.688Z,10.98
2022-08-09T04:40:45.612Z,11.06
2022-08-09T04:43:15.989Z,11.04
2022-08-09T04:45:53.925Z,11.21
2022-08-09T04:48:23.851Z,11.21
2022-08-09T04:51:00.812Z,11.24
2022-08-09T04:53:31.346Z,11.42
2022-08-09T04:56:05.525Z,11.56
2022-08-09T04:58:33.955Z,11.86
2022-08-09T05:01:02.885Z,11.88
2022-08-09T05:03:43.061Z,11.88
2022-08-09T05:06:11.792Z,11.96
2022-08-09T05:08:51.018Z,12.24
2022-08-09T05:11:18.512Z,12.47
2022-08-09T05:13:48.524Z,12.67
2022-08-09T05:16:16.144Z,12.90
2022-08-09T05:18:57.210Z,13.03
2022-08-09T05:21:29.949Z,13.26
2022-08-09T05:24:01.867Z,13.45
2022-08-09T05:26:45.352Z,13.50
2022-08-09T05:29:17.724Z,13.48
2022-08-09T05:31:49.320Z,13.71
2022-08-09T05:34:30.055Z,13.50
2022-08-09T05:37:01.524Z,13.72
2022-08-09T05:39:36.199Z,13.39
2022-08-09T05:42:17.952Z,13.20
2022-08-09T05:44:58.397Z,13.52
2022-08-09T05:47:30.297Z,13.33
2022-08-09T05:50:26.087Z,13.65
2022-08-09T05:52:53.322Z,13.69
2022-08-09T05:55:23.472Z,14.05
2022-08-09T05:57:57.365Z,14.49
2022-08-09T06:00:26.395Z,14.85
2022-08-09T06:02:56.999Z,14.72
2022-08-09T06:05:50.311Z,15.23
2022-08-09T06:08:12.409Z,15.53
2022-08-09T06:10:41.355Z,15.81
2022-08-09T06:13:20.289Z,15.93
2022-08-09T06:15:50.954Z,15.92
2022-08-09T06:18:23.755Z,15.56
2022-08-09T06:20:54.531Z,15.46
2022-08-09T06:23:55.731Z,15.77
2022-08-09T06:26:14.239Z,16.10
2022-08-09T06:28:43.346Z,15.84
2022-08-09T06:31:11.226Z,16.24
2022-08-09T06:33:40.936Z,16.10
2022-08-09T06:36:09.471Z,16.70
2022-08-09T06:38:47.191Z,16.90
2022-08-09T06:41:20.471Z,17.48
2022-08-09T06:43:48.937Z,17.68
2022-08-09T06:46:39.821Z,17.75
2022-08-09T06:49:04.263Z,16.64
2022-08-09T06:51:33.560Z,17.03
2022-08-09T06:54:06.734Z,17.75
2022-08-09T06:56:45.475Z,17.90
2022-08-09T07:00:49.989Z,17.55
2022-08-09T07:02:04.335Z,17.71
2022-08-09T07:04:32.888Z,18.47
2022-08-09T07:07:01.085Z,18.11
2022-08-09T07:09:54.233Z,18.05
2022-08-09T07:12:21.978Z,18.89
2022-08-09T07:16:35.131Z,17.98
2022-08-09T07:18:01.900Z,18.97
2022-08-09T07:20:30.042Z,18.73
2022-08-09T07:22:59.230Z,18.82
2022-08-09T07:25:27.522Z,19.32
2022-08-09T07:27:57.867Z,19.22
2022-08-09T07:30:27.916Z,19.17
2022-08-09T07:33:00.371Z,19.03
2022-08-09T07:35:28.358Z,19.52
2022-08-09T07:37:59.493Z,19.76
2022-08-09T07:40:37.397Z,19.96
2022-08-09T07:43:16.786Z,19.92
2022-08-09T07:45:44.660Z,20.05
2022-08-09T07:48:25.359Z,20.21
2022-08-09T07:51:09.246Z,20.29
2022-08-09T07:54:04.863Z,20.05
2022-08-09T07:56:33.619Z,20.54
2022-08-09T07:59:10.500Z,20.50
2022-08-09T08:01:43.330Z,20.34
2022-08-09T08:04:20.871Z,20.20
2022-08-09T08:07:00.102Z,20.51
2022-08-09T08:09:45.176Z,20.47
2022-08-09T08:12:24.758Z,20.64
2022-08-09T08:14:58.400Z,20.88
2022-08-09T08:17:52.067Z,21.08
2022-08-09T08:20:15.369Z,20.45
2022-08-09T08:22:43.694Z,20.85
2022-08-09T08:25:16.437Z,20.63
2022-08-09T08:27:47.058Z,20.16
2022-08-09T08:30:19.241Z,20.49
2022-08-09T08:32:52.767Z,20.46
2022-08-09T08:35:22.818Z,20.88
2022-08-09T08:38:01.890Z,20.60
2022-08-09T08:40:37.028Z,21.10
2022-08-09T08:43:13.486Z,21.17
2022-08-09T08:45:53.425Z,21.17
2022-08-09T08:48:33.205Z,21.48
2022-08-09T08:51:01.299Z,20.53
2022-08-09T08:53:32.281Z,20.94
2022-08-09T08:56:06.269Z,21.24
2022-08-09T08:58:36.846Z,20.69
2022-08-09T09:01:08.881Z,21.25
2022-08-09T09:03:50.505Z,21.56
2022-08-09T09:06:19.459Z,21.74
2022-08-09T09:08:52.413Z,21.62
2022-08-09T09:11:21.717Z,21.40
2022-08-09T09:13:56.159Z,21.34
2022-08-09T09:16:30.693Z,21.51
2022-08-09T09:19:37.275Z,21.33
2022-08-09T09:22:05.310Z,21.91
2022-08-09T09:24:38.015Z,21.60
2022-08-09T09:27:08.775Z,21.36
2022-08-09T09:30:08.536Z,21.62
2022-08-09T09:32:32.335Z,21.58
2022-08-09T09:35:07.515Z,21.40
2022-08-09T09:37:37.756Z,21.98
2022-08-09T09:40:09.799Z,21.87
2022-08-09T09:42:39.122Z,21.57
2022-08-09T09:45:14.425Z,21.47
2022-08-09T09:47:58.410Z,21.62
2022-08-09T09:50:49.413Z,21.45
2022-08-09T09:53:20.936Z,21.68
2022-08-09T09:55:57.644Z,21.72
2022-08-09T09:58:47.021Z,21.82
2022-08-09T10:01:36.991Z,21.96
2022-08-09T10:04:16.057Z,22.28
2022-08-09T10:06:53.895Z,21.98
2022-08-09T10:09:24.072Z,22.39
2022-08-09T10:12:07.860Z,22.39
2022-08-09T10:14:48.087Z,22.31
2022-08-09T10:17:40.203Z,22.12
2022-08-09T10:20:27.646Z,22.39
2022-08-09T10:23:13.499Z,22.28
2022-08-09T10:26:07.982Z,22.55
2022-08-09T10:28:30.224Z,22.27
2022-08-09T10:34:09.658Z,22.85
2022-08-09T10:36:35.463Z,22.48
2022-08-09T10:39:03.396Z,22.96
2022-08-09T10:41:42.016Z,22.70
2022-08-09T10:44:11.343Z,22.73
2022-08-09T10:47:00.665Z,22.82
2022-08-09T10:49:50.829Z,22.77
2022-08-09T10:52:44.960Z,23.14
2022-08-09T10:55:23.816Z,22.90
2022-08-09T10:57:55.375Z,22.86
2022-08-09T11:00:35.319Z,22.47
2022-08-09T11:03:18.170Z,22.86
2022-08-09T11:06:24.071Z,22.94
2022-08-09T11:08:53.952Z,23.13
2022-08-09T11:11:23.234Z,22.90
2022-08-09T11:14:28.331Z,22.73
2022-08-09T11:16:56.439Z,23.62
2022-08-09T11:20:11.021Z,23.37
2022-08-09T11:22:59.620Z,23.47
2022-08-09T11:25:48.002Z,23.10
2022-08-09T11:28:56.724Z,23.37
2022-08-09T11:31:52.566Z,23.47
2022-08-09T11:34:30.898Z,23.48
2022-08-09T11:37:01.160Z,23.53
2022-08-09T11:39:37.802Z,23.70
2022-08-09T11:42:14.737Z,23.70
2022-08-09T11:44:46.094Z,23.99
2022-08-09T11:47:14.370Z,24.02
2022-08-09T11:50:55.325Z,24.13
2022-08-09T11:53:28.226Z,24.03
2022-08-09T11:56:41.855Z,23.72
2022-08-09T11:59:14.097Z,23.36
2022-08-09T12:02:16.155Z,23.98
2022-08-09T12:04:37.389Z,23.70
2022-08-09T12:07:07.951Z,23.93
2022-08-09T12:09:37.622Z,23.84
2022-08-09T12:12:12.378Z,23.83
2022-08-09T12:15:08.065Z,24.18
2022-08-09T12:17:42.810Z,24.34
2022-08-09T12:20:16.331Z,24.49
2022-08-09T12:22:48.095Z,24.30
2022-08-09T12:25:31.813Z,24.72
2022-08-09T12:28:59.953Z,24.13
2022-08-09T12:31:02.811Z,24.14
2022-08-09T12:33:58.557Z,24.50
2022-08-09T12:36:32.303Z,24.78
2022-08-09T12:39:02.401Z,24.66
2022-08-09T12:41:39.035Z,24.99
2022-08-09T12:44:09.716Z,24.52
2022-08-09T12:46:41.103Z,24.56
2022-08-09T12:49:09.481Z,24.67
2022-08-09T12:52:00.405Z,24.37
2022-08-09T12:54:24.491Z,24.61
2022-08-09T12:56:54.681Z,24.53
2022-08-09T12:59:23.891Z,24.79
2022-08-09T13:02:07.076Z,24.96
2022-08-09T13:04:38.754Z,25.15
2022-08-09T13:07:14.674Z,25.26
2022-08-09T13:09:52.882Z,25.29
2022-08-09T13:12:28.054Z,25.43
2022-08-09T13:15:04.839Z,25.07
2022-08-09T13:18:02.492Z,25.31
2022-08-09T13:20:37.756Z,25.00
2022-08-09T13:24:16.390Z,25.36
2022-08-09T13:26:10.427Z,25.17
2022-08-09T13:28:39.817Z,25.62
2022-08-09T13:32:13.206Z,25.53
2022-08-09T13:33:58.450Z,25.47
2022-08-09T13:36:41.414Z,25.80
2022-08-09T13:41:19.555Z,25.55
2022-08-09T13:42:02.668Z,25.77
2022-08-09T13:44:31.106Z,25.98
2022-08-09T13:47:27.706Z,25.83
2022-08-09T13:49:58.092Z,25.78
2022-08-09T13:52:29.655Z,26.02
2022-08-09T13:54:59.047Z,26.10
2022-08-09T13:57:37.112Z,25.87
2022-08-09T14:00:10.664Z,26.10
2022-08-09T14:02:42.804Z,26.65
2022-08-09T14:05:57.258Z,26.46
2022-08-09T14:08:17.577Z,26.38
2022-08-09T14:10:51.834Z,26.31
2022-08-09T14:13:27.763Z,26.88
2022-08-09T14:16:09.165Z,26.69
2022-08-09T14:18:38.866Z,26.99
2022-08-09T14:21:17.149Z,26.63
2022-08-09T14:23:54.576Z,27.49
2022-08-09T14:26:31.659Z,26.88
2022-08-09T14:29:00.455Z,26.83
2022-08-09T14:31:36.207Z,26.48
2022-08-09T14:34:17.540Z,26.79
2022-08-09T14:36:56.160Z,27.19
2022-08-09T14:39:45.538Z,27.27
2022-08-09T14:42:11.112Z,28.42
2022-08-09T14:44:48.202Z,28.78
2022-08-09T14:47:39.809Z,27.40
2022-08-09T14:50:04.955Z,26.99
2022-08-09T14:52:34.652Z,27.36
2022-08-09T14:55:03.358Z,27.29
2022-08-09T14:57:31.732Z,26.95
2022-08-09T14:59:59.872Z,27.07
2022-08-09T15:02:28.532Z,27.48
2022-08-09T15:04:57.534Z,27.38
2022-08-09T15:07:26.220Z,27.98
2022-08-09T15:10:07.443Z,27.07
2022-08-09T15:12:38.920Z,27.49
2022-08-09T15:15:13.442Z,27.18
2022-08-09T15:17:42.078Z,26.87
2022-08-09T15:20:15.458Z,27.07
2022-08-09T15:22:59.768Z,26.81
2022-08-09T15:25:48.657Z,27.37
2022-08-09T15:28:26.227Z,27.48
2022-08-09T15:31:08.616Z,27.86
2022-08-09T15:34:27.394Z,27.02
2022-08-09T15:36:29.426Z,27.56
2022-08-09T15:38:58.855Z,27.66
2022-08-09T15:41:31.354Z,27.63
2022-08-09T15:44:00.514Z,26.69
2022-08-09T15:46:34.030Z,26.58
2022-08-09T15:49:22.054Z,27.08
2022-08-09T15:52:03.738Z,26.77
2022-08-09T15:54:46.364Z,26.17
2022-08-09T15:57:19.002Z,26.87
2022-08-09T16:00:02.670Z,27.34
2022-08-09T16:02:30.083Z,27.38
2022-08-09T16:04:57.523Z,26.82
2022-08-09T16:07:25.862Z,26.90
2022-08-09T16:10:04.534Z,26.99
2022-08-09T16:12:34.616Z,27.23
2022-08-09T16:15:04.752Z,27.27
2022-08-09T16:17:52.302Z,27.17
2022-08-09T16:20:19.776Z,26.56
2022-08-09T16:22:57.562Z,26.58
2022-08-09T16:25:36.794Z,26.92
2022-08-09T16:28:12.054Z,26.42
2022-08-09T16:30:44.717Z,26.58
2022-08-09T16:33:26.404Z,26.94
2022-08-09T16:35:59.093Z,26.40
2022-08-09T16:38:29.683Z,26.33
2022-08-09T16:40:57.826Z,26.51
2022-08-09T16:43:26.834Z,26.67
2022-08-09T16:45:55.115Z,27.13
2022-08-09T16:48:42.195Z,26.03
2022-08-09T16:51:13.668Z,26.24
2022-08-09T16:54:09.140Z,25.97
2022-08-09T16:56:30.872Z,25.38
2022-08-09T16:59:01.176Z,26.41
2022-08-09T17:01:33.824Z,26.55
2022-08-09T17:04:01.784Z,25.79
2022-08-09T17:06:33.209Z,25.87
2022-08-09T17:09:43.885Z,25.89
2022-08-09T17:11:52.713Z,25.70
2022-08-09T17:14:27.511Z,25.86
2022-08-09T17:16:59.758Z,25.36
2022-08-09T17:19:46.461Z,26.19
2022-08-09T17:22:24.051Z,25.99
2022-08-09T17:25:03.841Z,26.20
2022-08-09T17:27:32.984Z,26.16
2022-08-09T17:30:06.786Z,25.95
2022-08-09T17:32:38.308Z,25.78
2022-08-09T17:35:12.068Z,25.82
2022-08-09T17:38:02.177Z,25.33
2022-08-09T17:40:29.276Z,25.36
2022-08-09T17:42:59.514Z,25.04
2022-08-09T17:45:45.578Z,25.33
2022-08-09T17:48:16.690Z,25.30
2022-08-09T17:50:56.444Z,25.12
2022-08-09T17:53:27.505Z,25.35
2022-08-09T17:56:03.306Z,25.40
2022-08-09T17:58:35.142Z,25.18
2022-08-09T18:01:04.093Z,25.17
2022-08-09T18:03:31.802Z,24.61
2022-08-09T18:06:00.872Z,24.23
2022-08-09T18:08:29.423Z,24.23
2022-08-09T18:11:00.918Z,24.23
2022-08-09T18:13:43.037Z,23.86
2022-08-09T18:16:29.109Z,23.67
2022-08-09T18:18:57.291Z,23.57
2022-08-09T18:21:27.188Z,23.26
2022-08-09T18:24:10.418Z,23.06
2022-08-09T18:26:46.235Z,23.01
2022-08-09T18:30:40.546Z,23.07
2022-08-09T18:32:05.353Z,22.94
2022-08-09T18:34:35.114Z,22.73
2022-08-09T18:37:03.219Z,22.73
2022-08-09T18:39:32.245Z,22.58
2022-08-09T18:42:05.206Z,22.58
2022-08-09T18:44:35.672Z,22.48
2022-08-09T18:47:09.703Z,22.36
2022-08-09T18:49:43.037Z,22.26
2022-08-09T18:52:14.588Z,22.12
2022-08-09T18:54:52.660Z,22.10
2022-08-09T18:57:22.353Z,22.04
2022-08-09T18:59:54.378Z,21.94
2022-08-09T19:02:31.913Z,21.87
2022-08-09T19:05:04.197Z,21.83
2022-08-09T19:08:04.768Z,21.68
2022-08-09T19:10:37.375Z,21.62
2022-08-09T19:13:17.076Z,21.57
2022-08-09T19:15:51.527Z,21.57
2022-08-09T19:18:33.232Z,21.48
2022-08-09T19:21:09.396Z,21.24
2022-08-09T19:24:36.457Z,21.32
2022-08-09T19:26:31.094Z,21.21
2022-08-09T19:29:01.773Z,21.13
2022-08-09T19:31:30.750Z,20.99
2022-08-09T19:34:21.922Z,20.92
2022-08-09T19:36:51.198Z,20.97
2022-08-09T19:39:20.839Z,20.90
2022-08-09T19:42:06.855Z,20.84
2022-08-09T19:44:35.321Z,20.73
2022-08-09T19:47:03.825Z,20.70
2022-08-09T19:50:48.473Z,20.80
2022-08-09T19:52:21.483Z,20.68
2022-08-09T19:54:48.961Z,20.41
2022-08-09T19:57:16.551Z,20.71
2022-08-09T20:00:05.543Z,20.68
2022-08-09T20:04:07.558Z,20.65
2022-08-09T20:05:23.641Z,20.58
2022-08-09T20:07:59.520Z,20.46
2022-08-09T20:10:34.921Z,20.43
2022-08-09T20:13:06.582Z,20.53
2022-08-09T20:16:38.342Z,20.44
2022-08-09T20:18:23.080Z,20.34
2022-08-09T20:20:57.711Z,20.34
2022-08-09T20:23:39.225Z,20.32
2022-08-09T20:26:07.974Z,20.28
2022-08-09T20:28:47.885Z,20.19
2022-08-09T20:31:15.765Z,20.12
2022-08-09T20:33:44.061Z,20.00
2022-08-09T20:36:14.268Z,19.89
2022-08-09T20:39:27.959Z,19.73
2022-08-09T20:41:35.060Z,19.73
2022-08-09T20:44:06.958Z,19.74
2022-08-09T20:46:42.711Z,19.73
2022-08-09T20:49:12.775Z,19.76
2022-08-09T20:51:42.321Z,19.71
2022-08-09T20:54:12.740Z,19.67
2022-08-09T20:56:47.076Z,19.67
2022-08-09T20:59:17.209Z,19.60
2022-08-09T21:01:50.426Z,19.62
2022-08-09T21:05:51.967Z,19.48
2022-08-09T21:07:11.434Z,19.36
2022-08-09T21:09:45.239Z,19.27
2022-08-09T21:14:49.008Z,19.30
2022-08-09T21:18:21.862Z,19.24
2022-08-09T21:20:22.700Z,19.33
2022-08-09T21:22:54.986Z,19.32
2022-08-09T21:25:44.338Z,19.26
2022-08-09T21:28:22.135Z,19.28
2022-08-09T21:31:16.853Z,19.26
2022-08-09T21:33:50.410Z,19.27
2022-08-09T21:36:18.955Z,19.23
2022-08-09T21:38:56.802Z,19.18
2022-08-09T21:42:04.476Z,19.11
2022-08-09T21:44:15.418Z,19.06
2022-08-09T21:47:01.769Z,19.01
2022-08-09T21:49:29.369Z,18.90
2022-08-09T21:52:16.620Z,18.90
2022-08-09T21:54:50.706Z,18.88
2022-08-09T21:57:38.844Z,18.88
2022-08-09T22:00:25.361Z,18.77
2022-08-09T22:02:58.786Z,18.69
2022-08-09T22:05:35.552Z,18.61
2022-08-09T22:08:05.836Z,18.54
2022-08-09T22:10:35.423Z,18.50
2022-08-09T22:13:23.703Z,18.49
2022-08-09T22:15:58.936Z,18.49
2022-08-09T22:18:30.845Z,18.16
2022-08-09T22:21:00.684Z,18.11
2022-08-09T22:23:35.531Z,18.00
2022-08-09T22:26:34.152Z,17.95
2022-08-09T22:29:06.778Z,17.65
2022-08-09T22:31:35.306Z,17.37
2022-08-09T22:34:02.832Z,17.21
2022-08-09T22:36:37.426Z,17.24
2022-08-09T22:39:47.091Z,17.35
2022-08-09T22:42:02.631Z,17.28
2022-08-09T22:44:32.840Z,17.28
2022-08-09T22:48:18.265Z,17.25
2022-08-09T22:49:51.965Z,17.23
2022-08-09T22:52:20.020Z,17.21
2022-08-09T22:54:47.685Z,17.29
2022-08-09T22:57:16.559Z,17.27
2022-08-09T22:59:57.073Z,17.18
2022-08-09T23:02:27.487Z,17.08
2022-08-09T23:04:56.850Z,17.01
2022-08-09T23:08:21.750Z,16.83
2022-08-09T23:10:30.908Z,16.73
2022-08-09T23:13:00.124Z,16.58
2022-08-09T23:15:28.563Z,16.42
2022-08-09T23:17:56.326Z,16.33
2022-08-09T23:20:26.001Z,16.25
2022-08-09T23:22:53.480Z,16.17
2022-08-09T23:25:21.008Z,16.15
2022-08-09T23:28:14.033Z,16.12
2022-08-09T23:30:37.267Z,15.91
2022-08-09T23:33:04.755Z,15.73
2022-08-09T23:36:04.622Z,15.64
2022-08-09T23:38:20.446Z,15.43
2022-08-09T23:40:51.143Z,15.28
2022-08-09T23:43:19.114Z,15.14
2022-08-09T23:45:48.286Z,15.07
2022-08-09T23:48:15.827Z,15.05
2022-08-09T23:50:43.294Z,15.13
2022-08-09T23:53:10.826Z,15.23
2022-08-09T23:55:39.912Z,15.25
2022-08-09T23:58:27.481Z,15.19
